Time;durP1;ratioP1;P1;durP2;ratioP2;P2;SDS_P1;SDS_P2;PMS_P1;PMS_P2;Temp;Humidity;BMP_temperature;BMP_pressure;BME280_temperature;BME280_humidity;BME280_pressure;Samples;Min_cycle;Max_cycle;Signal;HPM_P1;HPM_P2
2022/10/08 00:01:57;;;;;;;12.25;8.20;;;;;;;13.54;98.13;99241.25;5043200;28;20044;-59
2022/10/08 00:04:42;;;;;;;10.85;5.65;;;;;;;13.90;97.34;99236.00;5046773;28;20036;-59
2022/10/08 00:07:27;;;;;;;7.75;4.20;;;;;;;13.87;98.68;99225.69;5046513;28;20085;-60
2022/10/08 00:10:12;;;;;;;11.43;8.68;;;;;;;13.46;98.02;99232.22;5040380;28;20044;-60
2022/10/08 00:12:56;;;;;;;11.25;7.75;;;;;;;12.87;100.00;99232.00;5033693;28;20059;-59
2022/10/08 00:15:42;;;;;;;8.65;6.45;;;;;;;13.58;99.80;99227.88;5046187;28;20376;-59
2022/10/08 00:18:28;;;;;;;10.65;7.55;;;;;;;13.67;98.46;99225.41;5051238;28;20045;-59
2022/10/08 00:21:17;;;;;;;12.05;7.28;;;;;;;13.41;100.00;99219.41;5040779;28;20038;-60
2022/10/08 00:24:05;;;;;;;13.10;8.50;;;;;;;13.43;99.00;99222.75;5040990;28;20068;-61
2022/10/08 00:26:51;;;;;;;9.85;7.18;;;;;;;13.61;99.08;99214.47;5049281;28;20033;-60
2022/10/08 00:29:35;;;;;;;7.85;6.05;;;;;;;13.62;100.00;99206.47;5040445;28;20095;-59
2022/10/08 00:32:20;;;;;;;14.13;9.20;;;;;;;13.43;98.93;99204.34;5037235;28;20068;-60
2022/10/08 00:35:05;;;;;;;9.93;6.55;;;;;;;13.39;100.00;99205.50;5029482;28;20140;-59
2022/10/08 00:37:50;;;;;;;9.63;6.88;;;;;;;13.29;100.00;99206.19;5037022;28;20480;-59
2022/10/08 00:40:42;;;;;;;10.18;6.30;;;;;;;13.49;99.72;99206.50;5034687;28;20417;-59
2022/10/08 00:43:45;;;;;;;18.38;8.55;;;;;;;12.83;100.00;99205.06;5048428;28;20364;-59
2022/10/08 00:46:36;;;;;;;11.38;6.35;;;;;;;13.37;100.00;99199.50;5037316;28;20116;-60
2022/10/08 00:49:21;;;;;;;10.57;7.00;;;;;;;13.58;99.14;99199.75;5042085;28;20052;-59
2022/10/08 00:52:06;;;;;;;6.13;4.95;;;;;;;13.30;100.00;99202.59;5034034;28;20119;-59
2022/10/08 00:54:51;;;;;;;11.35;8.25;;;;;;;13.22;100.00;99202.31;5047227;28;20089;-60
2022/10/08 00:57:37;;;;;;;13.35;9.15;;;;;;;12.83;100.00;99206.88;5042128;28;20368;-59
2022/10/08 01:00:24;;;;;;;15.02;9.00;;;;;;;13.13;100.00;99203.81;5070564;28;20384;-59
2022/10/08 01:03:09;;;;;;;7.13;4.80;;;;;;;13.46;100.00;99196.22;5052011;28;20061;-59
2022/10/08 01:06:25;;;;;;;10.38;6.38;;;;;;;13.69;100.00;99198.13;5044215;28;20045;-59
2022/10/08 01:09:15;;;;;;;12.95;6.85;;;;;;;13.26;100.00;99193.25;5047318;28;20048;-61
2022/10/08 01:12:05;;;;;;;7.60;5.60;;;;;;;13.50;100.00;99186.28;5041168;28;20045;-59
2022/10/08 01:15:05;;;;;;;9.88;6.85;;;;;;;13.28;100.00;99187.88;5035355;28;20392;-59
2022/10/08 01:18:13;;;;;;;13.07;8.55;;;;;;;13.06;100.00;99192.91;5046147;28;20056;-59
2022/10/08 01:21:13;;;;;;;11.32;8.02;;;;;;;13.05;100.00;99185.97;5045525;28;20087;-60
2022/10/08 01:24:09;;;;;;;16.02;10.02;;;;;;;13.04;100.00;99191.34;5047547;28;20056;-59
2022/10/08 01:27:01;;;;;;;11.63;8.38;;;;;;;13.42;100.00;99189.47;5042454;28;20116;-59
2022/10/08 01:29:49;;;;;;;13.73;8.90;;;;;;;13.26;100.00;99190.63;5049047;28;20071;-59
2022/10/08 01:32:40;;;;;;;9.02;5.38;;;;;;;13.57;100.00;99190.19;5044120;28;20128;-59
2022/10/08 01:35:30;;;;;;;12.50;9.32;;;;;;;13.03;100.00;99179.97;5052472;28;20044;-58
2022/10/08 01:38:20;;;;;;;14.43;9.73;;;;;;;12.97;100.00;99180.44;5048428;28;20142;-59
2022/10/08 01:41:08;;;;;;;8.73;5.15;;;;;;;13.00;100.00;99182.84;5051257;28;20478;-60
2022/10/08 01:44:01;;;;;;;11.65;8.45;;;;;;;12.90;100.00;99176.56;5035611;28;20045;-60
2022/10/08 01:46:48;;;;;;;11.60;8.90;;;;;;;13.09;100.00;99173.41;5038087;28;20118;-58
2022/10/08 01:49:42;;;;;;;13.98;10.25;;;;;;;12.61;100.00;99180.31;5049999;28;20451;-59
2022/10/08 01:52:35;;;;;;;13.65;9.60;;;;;;;12.66;100.00;99169.47;5051700;28;20111;-60
2022/10/08 01:55:37;;;;;;;13.77;10.00;;;;;;;12.57;100.00;99171.81;5049139;28;20052;-58
2022/10/08 01:58:30;;;;;;;9.18;6.88;;;;;;;12.82;100.00;99166.59;5041744;28;20049;-58
2022/10/08 02:01:26;;;;;;;9.23;6.45;;;;;;;13.13;100.00;99164.38;5045988;28;20037;-58
2022/10/08 02:07:19;;;;;;;9.55;6.97;;;;;;;12.68;100.00;99168.41;5044295;28;20211;-58
2022/10/08 02:10:17;;;;;;;8.90;6.03;;;;;;;12.66;100.00;99166.84;5039150;28;20115;-59
2022/10/08 02:13:02;;;;;;;10.10;7.40;;;;;;;12.88;100.00;99160.88;5036724;28;20079;-58
2022/10/08 02:16:06;;;;;;;12.00;7.10;;;;;;;12.50;100.00;99160.03;5050719;28;20480;-58
2022/10/08 02:18:59;;;;;;;11.48;7.97;;;;;;;12.36;100.00;99163.63;5047350;28;20132;-58
2022/10/08 02:21:44;;;;;;;11.82;7.18;;;;;;;12.64;100.00;99153.81;5050167;28;20124;-58
2022/10/08 02:24:39;;;;;;;6.47;5.30;;;;;;;12.92;100.00;99149.22;5037155;28;20182;-58
2022/10/08 02:27:29;;;;;;;5.65;4.75;;;;;;;13.00;100.00;99163.56;5043528;28;20124;-58
2022/10/08 02:30:13;;;;;;;12.18;7.75;;;;;;;12.69;100.00;99151.72;5073646;28;20029;-59
2022/10/08 02:33:08;;;;;;;10.40;6.18;;;;;;;13.12;100.00;99159.22;5046871;28;20076;-59
2022/10/08 02:35:57;;;;;;;8.98;7.05;;;;;;;12.86;100.00;99160.16;5051971;28;20033;-58
2022/10/08 02:38:49;;;;;;;14.02;9.40;;;;;;;12.77;100.00;99163.44;5019405;28;20041;-59
2022/10/08 02:41:38;;;;;;;9.13;5.88;;;;;;;12.98;100.00;99153.16;5041490;28;20392;-60
2022/10/08 02:44:32;;;;;;;11.88;8.05;;;;;;;12.43;100.00;99157.03;5037531;28;20177;-60
2022/10/08 02:47:22;;;;;;;10.32;7.38;;;;;;;12.63;100.00;99156.56;5040540;28;20116;-59
2022/10/08 02:50:11;;;;;;;12.77;8.23;;;;;;;12.48;100.00;99155.84;5044501;28;20499;-58
2022/10/08 02:52:57;;;;;;;12.85;8.30;;;;;;;12.39;100.00;99160.78;5055346;28;20069;-58
2022/10/08 02:56:11;;;;;;;11.50;9.10;;;;;;;12.18;100.00;99160.50;5038680;28;20040;-59
2022/10/08 02:58:55;;;;;;;14.30;9.43;;;;;;;12.25;100.00;99159.13;5049269;28;20380;-58
2022/10/08 03:01:56;;;;;;;14.93;8.68;;;;;;;12.13;100.00;99165.22;5044900;28;20384;-58
2022/10/08 03:04:46;;;;;;;14.48;9.48;;;;;;;12.19;100.00;99163.00;5051400;28;20040;-58
2022/10/08 03:07:32;;;;;;;8.57;6.88;;;;;;;12.09;100.00;99164.63;5045177;28;20036;-58
2022/10/08 03:10:18;;;;;;;11.70;8.07;;;;;;;12.19;100.00;99154.31;5048207;28;20076;-58
2022/10/08 03:13:04;;;;;;;11.82;8.38;;;;;;;12.24;100.00;99162.69;5045082;28;20520;-59
2022/10/08 03:15:52;;;;;;;8.75;5.85;;;;;;;12.32;100.00;99155.13;5044719;28;20053;-60
2022/10/08 03:18:38;;;;;;;11.73;7.60;;;;;;;12.52;100.00;99150.25;5037924;28;20538;-58
2022/10/08 03:21:25;;;;;;;8.75;6.80;;;;;;;12.49;100.00;99152.25;5042353;28;20043;-58
2022/10/08 03:24:11;;;;;;;10.80;7.75;;;;;;;12.51;100.00;99155.63;5045163;28;20461;-58
2022/10/08 03:26:56;;;;;;;10.73;8.00;;;;;;;12.18;100.00;99161.34;5045584;28;20135;-59
2022/10/08 03:29:41;;;;;;;12.82;8.77;;;;;;;12.35;100.00;99163.75;5048521;28;20036;-59
2022/10/08 03:32:26;;;;;;;14.23;9.18;;;;;;;12.41;100.00;99160.69;5077870;28;20045;-58
2022/10/08 03:35:11;;;;;;;12.45;8.63;;;;;;;12.77;100.00;99152.94;5042150;28;20185;-60
2022/10/08 03:37:55;;;;;;;10.98;7.68;;;;;;;12.72;100.00;99157.66;5035623;28;20132;-58
2022/10/08 03:40:41;;;;;;;10.50;6.70;;;;;;;12.51;100.00;99158.25;5036806;28;20033;-58
2022/10/08 03:43:31;;;;;;;6.78;4.70;;;;;;;12.75;100.00;99145.16;5036515;28;20476;-59
2022/10/08 03:46:17;;;;;;;9.38;7.15;;;;;;;12.92;100.00;99145.72;5041101;28;20035;-59
2022/10/08 03:49:02;;;;;;;7.47;4.63;;;;;;;13.26;100.00;99156.41;5031907;28;20076;-59
2022/10/08 03:51:46;;;;;;;12.00;8.13;;;;;;;13.41;99.63;99158.88;5040991;28;20087;-59
2022/10/08 03:54:33;;;;;;;8.35;6.07;;;;;;;13.37;100.00;99154.78;5038659;28;20051;-59
2022/10/08 03:57:18;;;;;;;11.95;8.98;;;;;;;13.47;98.54;99163.66;5027533;28;20040;-60
2022/10/08 04:00:04;;;;;;;8.30;5.30;;;;;;;13.81;99.21;99155.06;5042532;28;20047;-59
2022/10/08 04:02:49;;;;;;;14.18;9.27;;;;;;;13.34;96.97;99161.09;5046957;28;20128;-59
2022/10/08 04:05:34;;;;;;;14.10;9.82;;;;;;;12.49;100.00;99157.50;5043155;28;20108;-59
2022/10/08 04:08:20;;;;;;;14.02;9.00;;;;;;;12.10;100.00;99160.19;5045895;28;20139;-60
2022/10/08 04:11:31;;;;;;;12.45;8.95;;;;;;;11.95;100.00;99162.88;5041832;28;20129;-60
2022/10/08 04:14:16;;;;;;;11.05;8.80;;;;;;;11.92;100.00;99166.56;5045585;28;20162;-58
2022/10/08 04:17:00;;;;;;;12.18;9.13;;;;;;;11.91;100.00;99166.69;5029757;28;20067;-58
2022/10/08 04:19:45;;;;;;;12.35;8.48;;;;;;;11.78;100.00;99169.28;5045574;28;20115;-57
2022/10/08 04:22:36;;;;;;;13.80;8.98;;;;;;;11.70;100.00;99172.44;5041603;28;20375;-59
2022/10/08 04:25:20;;;;;;;11.75;8.82;;;;;;;11.58;100.00;99161.81;5035196;28;20033;-59
2022/10/08 04:28:06;;;;;;;13.02;9.38;;;;;;;11.58;100.00;99172.31;5042069;28;20044;-59
2022/10/08 04:31:03;;;;;;;13.68;9.57;;;;;;;11.46;100.00;99167.84;5038035;28;20365;-60
2022/10/08 04:33:49;;;;;;;14.25;9.38;;;;;;;11.37;100.00;99171.94;5034659;28;20037;-60
2022/10/08 04:36:34;;;;;;;12.60;9.27;;;;;;;11.37;100.00;99171.94;5048329;28;20120;-61
2022/10/08 04:39:18;;;;;;;14.48;9.18;;;;;;;11.33;100.00;99167.81;5039364;28;20095;-60
2022/10/08 04:42:03;;;;;;;17.67;10.10;;;;;;;11.21;100.00;99172.09;5041583;28;20041;-60
2022/10/08 04:44:48;;;;;;;14.57;9.52;;;;;;;11.09;100.00;99169.31;5037799;28;20050;-59
2022/10/08 04:47:33;;;;;;;11.93;8.82;;;;;;;11.09;100.00;99171.94;5037873;28;20108;-60
2022/10/08 04:50:18;;;;;;;14.18;9.48;;;;;;;11.06;100.00;99168.69;5039922;28;20039;-60
2022/10/08 04:53:06;;;;;;;13.43;9.40;;;;;;;11.05;100.00;99165.19;5017876;28;20049;-59
2022/10/08 04:55:52;;;;;;;12.82;9.73;;;;;;;11.02;100.00;99170.66;5041795;28;20061;-59
2022/10/08 04:58:37;;;;;;;13.77;8.65;;;;;;;11.06;100.00;99173.91;5032042;28;20087;-59
2022/10/08 05:01:23;;;;;;;18.20;10.68;;;;;;;10.98;100.00;99168.31;5041202;28;20041;-59
2022/10/08 05:04:08;;;;;;;14.48;9.82;;;;;;;10.98;100.00;99170.94;5048458;28;20144;-59
2022/10/08 05:06:54;;;;;;;14.98;9.80;;;;;;;10.92;100.00;99162.53;5050055;28;20035;-60
2022/10/08 05:09:39;;;;;;;19.67;11.38;;;;;;;11.03;100.00;99166.25;5045873;28;20029;-60
2022/10/08 05:12:23;;;;;;;10.68;7.97;;;;;;;11.54;100.00;99175.22;5041430;28;20044;-59
2022/10/08 05:15:10;;;;;;;15.15;10.77;;;;;;;11.38;100.00;99176.22;5042052;28;20136;-59
2022/10/08 05:17:57;;;;;;;16.27;11.77;;;;;;;11.39;100.00;99179.69;5046467;28;20119;-60
2022/10/08 05:20:42;;;;;;;19.02;9.65;;;;;;;11.80;100.00;99180.53;5047092;28;20041;-60
2022/10/08 05:23:27;;;;;;;12.10;8.20;;;;;;;11.65;100.00;99182.38;5034521;28;20061;-60
2022/10/08 05:26:21;;;;;;;12.63;8.73;;;;;;;12.02;100.00;99184.31;5037682;28;20065;-62
2022/10/08 05:29:06;;;;;;;11.48;8.13;;;;;;;11.76;100.00;99182.50;5055555;28;20041;-60
2022/10/08 05:31:51;;;;;;;11.65;7.72;;;;;;;12.32;100.00;99180.56;5050144;28;20037;-60
2022/10/08 05:34:42;;;;;;;16.00;11.40;;;;;;;11.94;100.00;99180.44;5034632;28;20069;-59
2022/10/08 05:37:28;;;;;;;16.02;10.25;;;;;;;11.43;100.00;99184.66;5032801;28;20547;-60
2022/10/08 05:40:13;;;;;;;14.43;9.50;;;;;;;11.47;100.00;99190.53;5040523;28;20044;-65
2022/10/08 05:42:57;;;;;;;16.50;10.00;;;;;;;11.93;100.00;99189.25;5070302;28;20112;-60
2022/10/08 05:45:49;;;;;;;15.95;10.88;;;;;;;12.21;100.00;99201.50;5052261;28;20411;-61
2022/10/08 05:48:34;;;;;;;;;;;;;;;12.77;100.00;99200.25;5046773;28;20048;-60
2022/10/08 05:51:19;;;;;;;14.50;8.38;;;;;;;12.94;100.00;99201.69;5036572;28;19963;-59
2022/10/08 05:54:03;;;;;;;14.82;9.82;;;;;;;12.43;100.00;99204.31;5045464;28;20099;-53
2022/10/08 05:56:48;;;;;;;17.38;10.40;;;;;;;12.29;100.00;99207.88;5050192;28;20044;-59
2022/10/08 05:59:32;;;;;;;16.85;9.35;;;;;;;12.75;100.00;99217.91;5052668;28;20119;-60
2022/10/08 06:02:17;;;;;;;10.60;8.00;;;;;;;12.78;100.00;99207.19;5047502;28;20053;-59
2022/10/08 06:05:01;;;;;;;14.95;9.60;;;;;;;12.48;100.00;99211.03;5033560;28;20379;-60
2022/10/08 06:07:46;;;;;;;14.85;8.45;;;;;;;12.27;100.00;99214.19;5040505;28;20037;-60
2022/10/08 06:10:32;;;;;;;13.80;9.35;;;;;;;12.30;100.00;99213.97;5072297;28;20040;-62
2022/10/08 06:13:18;;;;;;;20.13;11.15;;;;;;;12.02;100.00;99221.06;5056071;28;20349;-60
2022/10/08 06:16:06;;;;;;;18.70;10.43;;;;;;;12.48;100.00;99218.91;5080352;28;20052;-60
2022/10/08 06:18:51;;;;;;;15.95;11.27;;;;;;;12.53;100.00;99220.25;5044618;28;20025;-60
2022/10/08 06:21:36;;;;;;;14.90;10.15;;;;;;;12.39;100.00;99223.00;5052244;28;20424;-60
2022/10/08 06:24:20;;;;;;;14.57;9.77;;;;;;;12.43;100.00;99225.34;5045244;28;20068;-61
2022/10/08 06:27:05;;;;;;;17.83;7.85;;;;;;;12.55;100.00;99233.31;5048723;28;20033;-60
2022/10/08 06:29:49;;;;;;;13.77;10.48;;;;;;;12.94;100.00;99233.25;5050944;28;20072;-63
2022/10/08 06:32:34;;;;;;;10.98;8.05;;;;;;;12.76;100.00;99230.13;5041421;28;20042;-60
2022/10/08 06:35:19;;;;;;;16.55;10.75;;;;;;;13.09;100.00;99230.47;5038228;28;20057;-61
2022/10/08 06:38:04;;;;;;;11.73;8.13;;;;;;;13.55;100.00;99228.94;5068232;28;20440;-61
2022/10/08 06:40:49;;;;;;;14.70;9.75;;;;;;;13.50;97.28;99231.88;5022256;28;20029;-63
2022/10/08 06:43:34;;;;;;;15.45;9.55;;;;;;;13.69;96.99;99245.50;5051492;28;20037;-61
2022/10/08 06:46:18;;;;;;;13.95;9.85;;;;;;;13.89;94.59;99244.84;5050202;28;20234;-60
2022/10/08 06:49:07;;;;;;;14.05;8.60;;;;;;;14.11;94.75;99251.16;5040303;28;20037;-61
2022/10/08 06:51:51;;;;;;;11.98;8.50;;;;;;;14.73;90.04;99257.91;5043846;28;20538;-61
2022/10/08 06:54:36;;;;;;;12.70;8.52;;;;;;;14.65;90.37;99247.97;5041149;28;20094;-61
2022/10/08 06:57:20;;;;;;;10.40;8.13;;;;;;;14.59;92.24;99257.19;5045086;28;20064;-61
2022/10/08 07:00:05;;;;;;;15.65;7.63;;;;;;;14.94;90.20;99244.00;5043981;28;20044;-61
2022/10/08 07:02:50;;;;;;;17.27;9.90;;;;;;;14.97;87.79;99244.63;5039578;28;20496;-61
2022/10/08 07:05:35;;;;;;;23.25;14.15;;;;;;;15.07;87.82;99242.09;5031426;28;20546;-60
2022/10/08 07:08:19;;;;;;;13.93;9.48;;;;;;;15.72;84.67;99251.84;5041159;28;20052;-60
2022/10/08 07:11:07;;;;;;;11.40;8.23;;;;;;;16.21;82.67;99247.88;5043324;28;20132;-61
2022/10/08 07:13:53;;;;;;;11.30;7.07;;;;;;;15.49;86.67;99249.28;5044906;28;20041;-62
2022/10/08 07:16:38;;;;;;;12.65;8.88;;;;;;;15.22;86.62;99247.09;5048212;28;20116;-61
2022/10/08 07:19:23;;;;;;;11.57;7.90;;;;;;;14.64;89.34;99251.53;5036441;28;20065;-62
2022/10/08 07:22:08;;;;;;;11.02;8.98;;;;;;;14.76;89.69;99250.59;5040440;28;20037;-61
2022/10/08 07:24:53;;;;;;;9.70;6.70;;;;;;;15.01;91.27;99247.84;5044689;28;20057;-61
2022/10/08 07:27:37;;;;;;;11.77;7.45;;;;;;;15.19;89.91;99252.63;5035325;28;20438;-60
2022/10/08 07:30:22;;;;;;;10.98;7.30;;;;;;;15.78;86.55;99250.50;5037851;28;20090;-60
2022/10/08 07:33:06;;;;;;;12.10;8.85;;;;;;;16.20;81.58;99251.50;5032915;28;20342;-59
2022/10/08 07:35:51;;;;;;;11.88;7.82;;;;;;;16.71;78.71;99255.09;5032897;28;20121;-60
2022/10/08 07:38:41;;;;;;;11.80;8.40;;;;;;;16.52;79.83;99255.03;5039131;28;20089;-64
2022/10/08 07:41:27;;;;;;;15.70;10.30;;;;;;;16.65;78.33;99258.28;5046038;28;20057;-60
2022/10/08 07:44:13;;;;;;;18.90;10.48;;;;;;;16.58;79.69;99262.44;5039105;28;20583;-60
2022/10/08 07:46:57;;;;;;;13.25;9.18;;;;;;;16.51;78.75;99256.81;5040701;28;20480;-60
2022/10/08 07:49:42;;;;;;;12.50;8.98;;;;;;;16.90;78.60;99263.22;5044803;28;20120;-61
2022/10/08 07:52:28;;;;;;;15.13;9.85;;;;;;;17.59;74.63;99250.97;5036024;28;20053;-61
2022/10/08 07:55:13;;;;;;;12.88;8.13;;;;;;;18.15;71.35;99255.72;5035434;28;20114;-61
2022/10/08 07:57:57;;;;;;;13.73;8.70;;;;;;;17.63;73.00;99256.84;5037333;28;20042;-60
2022/10/08 08:00:42;;;;;;;16.60;8.60;;;;;;;17.96;71.60;99265.34;5070571;28;20104;-61
2022/10/08 08:03:27;;;;;;;15.63;8.77;;;;;;;17.64;72.29;99269.13;5037086;28;20406;-61
2022/10/08 08:06:13;;;;;;;11.80;8.77;;;;;;;17.05;75.07;99261.06;5046383;28;20094;-60
2022/10/08 08:08:59;;;;;;;13.10;7.43;;;;;;;17.45;76.04;99251.38;5051022;28;20029;-62
2022/10/08 08:11:45;;;;;;;12.52;7.95;;;;;;;17.46;74.71;99261.84;5032601;28;20455;-61
2022/10/08 08:14:29;;;;;;;12.95;7.13;;;;;;;17.98;71.37;99255.41;5040802;28;20040;-60
2022/10/08 08:17:14;;;;;;;13.07;8.18;;;;;;;17.94;71.28;99256.69;5046553;28;20037;-60
2022/10/08 08:19:59;;;;;;;12.73;6.22;;;;;;;19.31;68.05;99264.34;5046513;28;20077;-61
2022/10/08 08:22:44;;;;;;;13.25;8.45;;;;;;;19.02;67.38;99261.81;5037216;28;20033;-61
2022/10/08 08:25:28;;;;;;;19.13;8.68;;;;;;;19.12;67.11;99262.63;5035680;28;20041;-61
2022/10/08 08:28:13;;;;;;;12.48;8.00;;;;;;;19.87;64.58;99265.16;5046240;28;20044;-61
2022/10/08 08:31:13;;;;;;;11.43;7.38;;;;;;;20.09;62.18;99263.06;5040154;28;20160;-62
2022/10/08 08:34:00;;;;;;;9.43;6.60;;;;;;;18.24;70.66;99264.63;5041951;28;20035;-61
2022/10/08 08:36:47;;;;;;;12.15;7.78;;;;;;;19.95;64.17;99262.56;5032766;28;20435;-61
2022/10/08 08:39:32;;;;;;;10.00;6.97;;;;;;;19.79;63.56;99261.47;5047993;28;20345;-61
2022/10/08 08:42:30;;;;;;;13.48;8.35;;;;;;;20.05;62.37;99262.50;5038328;28;20370;-61
2022/10/08 08:45:27;;;;;;;9.02;7.22;;;;;;;20.48;60.72;99262.63;5032246;28;20128;-62
2022/10/08 08:48:20;;;;;;;8.52;6.72;;;;;;;20.56;60.68;99259.19;5035301;28;20038;-61
2022/10/08 08:51:04;;;;;;;10.23;6.53;;;;;;;21.61;57.46;99254.50;5041961;28;20071;-62
2022/10/08 08:53:49;;;;;;;8.90;6.03;;;;;;;22.35;54.34;99254.66;5044942;28;20473;-62
2022/10/08 08:56:38;;;;;;;13.88;7.65;;;;;;;21.30;57.21;99260.47;5037637;28;20112;-61
2022/10/08 08:59:31;;;;;;;12.32;6.72;;;;;;;19.58;62.80;99261.78;5041116;28;20033;-62
2022/10/08 09:02:32;;;;;;;6.93;3.55;;;;;;;22.26;57.31;99257.34;5040174;28;20500;-62
2022/10/08 09:05:19;;;;;;;7.63;5.10;;;;;;;23.61;53.47;99267.31;5035182;28;20073;-61
2022/10/08 09:08:16;;;;;;;5.53;4.10;;;;;;;23.10;54.72;99259.72;5036027;28;20365;-62
2022/10/08 09:11:03;;;;;;;11.15;7.07;;;;;;;22.63;53.72;99262.28;5031567;28;20069;-62
2022/10/08 09:13:59;;;;;;;9.57;7.55;;;;;;;22.27;53.85;99266.19;5049311;28;20065;-61
2022/10/08 09:16:43;;;;;;;15.30;7.00;;;;;;;21.73;57.20;99257.69;5038220;28;20084;-62
2022/10/08 09:19:28;;;;;;;11.45;6.10;;;;;;;23.16;52.89;99266.22;5042182;28;20057;-62
2022/10/08 09:22:24;;;;;;;8.07;6.47;;;;;;;22.98;53.78;99257.47;5031713;28;20045;-62
2022/10/08 09:25:14;;;;;;;9.85;7.00;;;;;;;22.83;53.30;99265.38;5035011;28;20390;-62
2022/10/08 09:28:02;;;;;;;11.55;7.68;;;;;;;21.27;57.28;99266.13;5042686;28;20473;-63
2022/10/08 09:30:47;;;;;;;9.77;5.68;;;;;;;22.28;55.67;99259.81;5042685;28;20065;-63
2022/10/08 09:33:33;;;;;;;10.50;6.70;;;;;;;24.19;50.51;99257.13;5036590;28;20057;-64
2022/10/08 09:36:31;;;;;;;9.48;7.00;;;;;;;23.04;54.25;99258.63;5030154;28;20155;-62
2022/10/08 09:39:18;;;;;;;9.20;6.63;;;;;;;22.74;53.29;99253.06;5033557;28;20128;-61
2022/10/08 09:42:05;;;;;;;7.35;5.30;;;;;;;24.18;49.77;99250.13;5042754;28;20033;-61
2022/10/08 09:45:02;;;;;;;6.32;4.68;;;;;;;24.87;48.18;99252.69;5041116;28;20041;-62
2022/10/08 09:48:15;;;;;;;8.43;6.68;;;;;;;23.79;49.84;99251.97;5048562;28;20156;-61
2022/10/08 09:51:02;;;;;;;12.25;6.90;;;;;;;23.56;51.58;99252.81;5041002;28;20113;-63
2022/10/08 09:53:57;;;;;;;10.90;6.97;;;;;;;22.69;54.75;99256.25;5036016;28;20049;-62
2022/10/08 09:56:51;;;;;;;9.55;5.70;;;;;;;24.91;47.14;99252.16;5033862;28;20091;-62
2022/10/08 09:59:45;;;;;;;8.10;5.68;;;;;;;25.88;45.50;99256.47;5036040;28;20061;-62
2022/10/08 10:02:35;;;;;;;10.00;6.70;;;;;;;24.42;47.72;99256.22;5035777;28;20084;-62
2022/10/08 10:05:23;;;;;;;8.10;6.13;;;;;;;25.27;46.70;99255.88;5038347;28;20384;-63
2022/10/08 10:08:54;;;;;;;9.98;7.15;;;;;;;23.86;49.80;99250.25;5036106;28;20511;-62
2022/10/08 10:11:48;;;;;;;8.55;6.20;;;;;;;24.81;47.83;99251.59;5040811;28;20075;-63
2022/10/08 10:14:45;;;;;;;11.05;5.45;;;;;;;25.15;46.90;99247.47;5049435;28;20032;-62
2022/10/08 10:17:37;;;;;;;12.88;6.80;;;;;;;24.36;49.06;99233.72;5057278;28;20053;-61
2022/10/08 10:20:34;;;;;;;8.80;6.18;;;;;;;22.76;53.94;99243.88;5039909;28;20041;-62
2022/10/08 10:23:38;;;;;;;7.28;5.72;;;;;;;24.92;48.64;99240.44;5037937;28;20037;-61
2022/10/08 10:26:27;;;;;;;9.18;5.32;;;;;;;24.63;49.86;99239.41;5037461;28;20129;-61
2022/10/08 10:29:39;;;;;;;8.27;6.03;;;;;;;25.16;48.63;99243.81;5043005;28;20069;-61
2022/10/08 10:32:33;;;;;;;7.35;5.30;;;;;;;26.14;46.62;99227.34;5043955;28;20046;-61
2022/10/08 10:35:28;;;;;;;8.02;6.07;;;;;;;27.00;43.72;99227.13;5023364;28;20400;-61
2022/10/08 10:38:23;;;;;;;6.65;4.88;;;;;;;26.58;44.74;99214.59;5034048;28;20057;-61
2022/10/08 10:41:26;;;;;;;5.10;3.83;;;;;;;26.37;45.73;99220.91;5039317;28;20069;-60
2022/10/08 10:44:21;;;;;;;7.20;5.95;;;;;;;25.85;46.69;99208.56;5045990;28;20132;-61
2022/10/08 10:47:08;;;;;;;11.40;5.20;;;;;;;24.81;48.96;99211.41;5058946;28;20045;-62
2022/10/08 10:49:54;;;;;;;6.22;3.97;;;;;;;24.71;50.28;99212.53;5062962;28;20041;-63
2022/10/08 10:53:38;;;;;;;7.05;4.13;;;;;;;26.93;43.91;99211.81;5051417;28;20116;-61
2022/10/08 10:56:29;;;;;;;8.20;4.50;;;;;;;27.83;43.02;99198.31;5038512;28;20074;-62
2022/10/08 10:59:28;;;;;;;5.00;3.00;;;;;;;28.70;41.68;99201.84;5047729;28;20550;-62
2022/10/08 11:02:15;;;;;;;9.93;5.72;;;;;;;27.74;41.09;99197.72;5046733;28;20049;-63
2022/10/08 11:05:11;;;;;;;3.92;3.08;;;;;;;27.98;43.26;99195.41;5047541;28;20370;-63
2022/10/08 11:08:14;;;;;;;9.48;6.38;;;;;;;27.43;41.05;99191.91;5047831;28;20401;-62
2022/10/08 11:11:18;;;;;;;7.18;5.95;;;;;;;25.39;46.04;99199.06;5046572;28;20049;-62
2022/10/08 11:14:27;;;;;;;5.63;3.97;;;;;;;27.64;42.16;99189.19;5033028;28;20548;-61
2022/10/08 11:17:34;;;;;;;5.28;3.13;;;;;;;29.30;39.01;99189.09;5047756;28;20127;-60
2022/10/08 11:20:38;;;;;;;6.93;5.40;;;;;;;28.60;39.55;99188.00;5046151;28;20041;-61
2022/10/08 11:24:06;;;;;;;9.02;6.22;;;;;;;26.06;44.72;99188.06;5044131;28;20123;-59
2022/10/08 11:27:21;;;;;;;6.60;3.90;;;;;;;27.07;42.63;99182.34;5047628;28;20044;-60
2022/10/08 11:30:13;;;;;;;10.52;5.88;;;;;;;24.95;47.74;99182.97;5035698;28;20041;-60
2022/10/08 11:32:58;;;;;;;8.77;5.00;;;;;;;27.86;41.69;99172.88;5034862;28;20117;-61
2022/10/08 11:36:03;;;;;;;9.57;5.20;;;;;;;28.17;41.32;99168.63;5044363;28;20045;-62
2022/10/08 11:38:58;;;;;;;3.67;2.83;;;;;;;28.43;42.67;99166.13;5040564;28;20053;-61
2022/10/08 11:42:05;;;;;;;7.00;4.43;;;;;;;28.56;41.14;99165.22;5041565;28;20057;-61
2022/10/08 11:44:50;;;;;;;8.50;5.15;;;;;;;27.18;43.94;99156.69;5041038;28;20044;-60
2022/10/08 11:47:47;;;;;;;6.63;5.82;;;;;;;27.74;42.04;99151.16;5036262;28;20047;-60
2022/10/08 11:50:35;;;;;;;8.23;5.85;;;;;;;28.10;40.57;99143.63;5054736;28;20490;-61
2022/10/08 11:53:23;;;;;;;8.50;5.40;;;;;;;26.65;43.87;99144.78;5037115;28;20809;-61
2022/10/08 11:56:09;;;;;;;6.40;3.80;;;;;;;27.20;43.54;99137.69;5038144;28;20056;-61
2022/10/08 11:58:57;;;;;;;6.25;4.38;;;;;;;27.96;41.69;99135.56;5046777;28;20524;-59
2022/10/08 12:01:52;;;;;;;5.57;3.22;;;;;;;26.78;44.81;99123.31;5068277;28;20045;-59
2022/10/08 12:04:38;;;;;;;7.35;4.57;;;;;;;27.45;43.11;99124.47;5037089;28;20106;-62
2022/10/08 12:07:36;;;;;;;13.48;7.53;;;;;;;27.42;42.97;99114.94;5034844;28;20446;-62
2022/10/08 12:10:44;;;;;;;4.68;3.05;;;;;;;27.57;43.83;99121.16;5039583;28;20072;-60
2022/10/08 12:13:29;;;;;;;8.13;5.85;;;;;;;26.89;43.25;99121.06;5069209;28;20054;-60
2022/10/08 12:16:14;;;;;;;7.05;4.35;;;;;;;26.86;43.80;99119.63;5066819;28;20511;-60
2022/10/08 12:19:00;;;;;;;5.47;3.70;;;;;;;27.82;42.52;99115.94;5066614;28;20186;-61
2022/10/08 12:21:48;;;;;;;7.63;5.15;;;;;;;27.41;43.03;99115.97;5069478;28;20070;-60
2022/10/08 12:24:37;;;;;;;5.13;3.40;;;;;;;26.85;44.43;99115.28;5077686;28;20044;-59
2022/10/08 12:27:23;;;;;;;6.25;3.45;;;;;;;26.26;46.17;99118.38;5073978;28;20052;-59
2022/10/08 12:30:15;;;;;;;5.40;4.57;;;;;;;27.15;43.34;99108.72;5069006;28;20089;-59
2022/10/08 12:33:00;;;;;;;8.45;5.55;;;;;;;26.48;44.64;99109.41;5071398;28;20040;-60
2022/10/08 12:36:07;;;;;;;6.85;4.10;;;;;;;25.58;46.07;99115.28;5051025;28;20048;-61
2022/10/08 12:39:21;;;;;;;5.38;3.42;;;;;;;25.50;47.34;99117.28;5069165;28;20456;-59
2022/10/08 12:42:06;;;;;;;4.78;3.72;;;;;;;24.92;48.54;99117.19;5068609;28;20052;-62
2022/10/08 12:44:56;;;;;;;7.32;4.93;;;;;;;24.42;48.52;99112.53;5047298;28;20064;-59
2022/10/08 12:47:53;;;;;;;;;;;;;;;25.85;44.82;99111.16;5031666;28;20063;-59
2022/10/08 12:50:41;;;;;;;5.82;4.70;;;;;;;24.40;49.60;99119.09;5028932;28;19962;-61
2022/10/08 12:53:26;;;;;;;5.50;3.13;;;;;;;23.99;51.72;99122.03;5030414;28;20116;-60
2022/10/08 12:56:19;;;;;;;6.32;4.82;;;;;;;23.56;51.70;99127.16;5042013;28;20080;-60
2022/10/08 12:59:04;;;;;;;8.30;4.57;;;;;;;23.20;53.11;99128.59;5038233;28;20052;-60
2022/10/08 13:01:50;;;;;;;5.45;4.30;;;;;;;22.87;54.91;99119.81;5037944;28;20040;-60
2022/10/08 13:04:35;;;;;;;11.35;5.00;;;;;;;22.33;56.04;99117.91;5035951;28;20381;-64
2022/10/08 13:07:27;;;;;;;8.57;5.03;;;;;;;22.91;53.60;99117.63;5033380;28;20038;-58
2022/10/08 13:10:20;;;;;;;7.22;4.63;;;;;;;23.60;51.72;99110.56;5030102;28;20037;-58
2022/10/08 13:13:26;;;;;;;6.57;4.85;;;;;;;23.72;51.49;99113.63;5043390;28;20485;-59